TAF

TERMINAL AERODROME FORECAST
STASIUN METEOROLOGI HANG NADIM BATAM
ADDS - METARS form results

Aviation Digital Data Service (ADDS)

Output produced by METARs form (1042 UTC 24 July 2017)
found at http://aviationweather.gov/adds/metars/
 
Forecast for: WIDD (HANG NADIM , ID)
Text: TAF WIDD 240500Z 2406/2506 16009KT 9000 SCT014
Forecast period: 0600 UTC 24 July 2017 to 0600 UTC 25 July 2017
Forecast type: FROM: standard forecast or significant change
Winds: from the SSE (160 degrees) at 10 MPH (9 knots; 4.7 m/s)
Visibility: 6 miles (9 km)
Clouds: scattered clouds at 1400 feet AGL
Weather: no significant weather forecast for this period

Informasi TAF dapat diakses juga di http://aviation.bmkg.go.id